createdAt,value
2023-10-23T00:02:13.663Z,100846.94
2023-10-23T00:04:41.060Z,100846.91
2023-10-23T00:07:08.487Z,100849.78
2023-10-23T00:09:35.662Z,100842.47
2023-10-23T00:12:02.719Z,100851.31
2023-10-23T00:14:29.791Z,100847.47
2023-10-23T00:16:56.893Z,100838.22
2023-10-23T00:19:24.008Z,100857.28
2023-10-23T00:21:52.033Z,100856.41
2023-10-23T00:24:19.033Z,100858.50
2023-10-23T00:26:46.300Z,100850.88
2023-10-23T00:29:14.174Z,100856.66
2023-10-23T00:31:41.197Z,100856.34
2023-10-23T00:34:08.335Z,100845.97
2023-10-23T00:36:35.362Z,100857.53
2023-10-23T00:39:02.994Z,100860.16
2023-10-23T00:41:30.453Z,100851.94
2023-10-23T00:43:57.528Z,100867.22
2023-10-23T00:46:28.658Z,100863.41
2023-10-23T00:48:55.808Z,100851.78
2023-10-23T00:51:23.492Z,100855.72
2023-10-23T00:53:50.982Z,100853.28
2023-10-23T00:56:19.720Z,100861.25
2023-10-23T00:58:47.707Z,100858.50
2023-10-23T01:01:15.194Z,100862.16
2023-10-23T01:03:44.220Z,100855.34
2023-10-23T01:06:14.236Z,100855.34
2023-10-23T01:08:43.408Z,100855.78
2023-10-23T01:11:10.953Z,100859.75
2023-10-23T01:13:39.401Z,100872.00
2023-10-23T01:16:06.508Z,100867.38
2023-10-23T01:18:33.987Z,100873.47
2023-10-23T01:21:02.092Z,100872.91
2023-10-23T01:23:36.975Z,100865.81
2023-10-23T01:26:04.742Z,100866.88
2023-10-23T01:28:31.682Z,100870.78
2023-10-23T01:30:58.945Z,100870.78
2023-10-23T01:33:26.431Z,100873.38
2023-10-23T01:35:53.808Z,100873.28
2023-10-23T01:38:21.248Z,100875.41
2023-10-23T01:40:48.607Z,100873.69
2023-10-23T01:43:16.842Z,100878.16
2023-10-23T01:45:44.091Z,100871.06
2023-10-23T01:48:11.815Z,100873.41
2023-10-23T01:50:41.694Z,100885.19
2023-10-23T01:53:09.434Z,100888.34
2023-10-23T01:55:37.559Z,100885.91
2023-10-23T01:58:05.677Z,100873.09
2023-10-23T02:00:33.110Z,100883.09
2023-10-23T02:03:00.900Z,100887.91
2023-10-23T02:05:28.641Z,100884.88
2023-10-23T02:07:56.141Z,100898.13
2023-10-23T02:10:24.629Z,100877.56
2023-10-23T02:12:51.854Z,100883.34
2023-10-23T02:15:19.245Z,100882.53
2023-10-23T02:17:46.540Z,100893.34
2023-10-23T02:20:15.037Z,100893.13
2023-10-23T02:22:42.239Z,100890.78
2023-10-23T02:25:09.780Z,100902.09
2023-10-23T02:27:36.899Z,100898.34
2023-10-23T02:30:04.861Z,100894.88
2023-10-23T02:32:32.010Z,100901.13
2023-10-23T02:35:00.219Z,100899.03
2023-10-23T02:37:28.075Z,100901.47
2023-10-23T02:39:56.156Z,100899.13
2023-10-23T02:42:23.683Z,100912.53
2023-10-23T02:44:50.796Z,100914.16
2023-10-23T02:47:18.229Z,100917.88
2023-10-23T02:49:45.611Z,100911.13
2023-10-23T02:52:12.747Z,100907.31
2023-10-23T02:54:39.860Z,100920.47
2023-10-23T02:57:07.494Z,100921.19
2023-10-23T02:59:35.336Z,100920.53
2023-10-23T03:02:02.711Z,100925.31
2023-10-23T03:04:30.443Z,100925.19
2023-10-23T03:06:58.045Z,100933.94
2023-10-23T03:09:25.224Z,100932.88
2023-10-23T03:11:52.312Z,100937.09
2023-10-23T03:14:20.213Z,100940.81
2023-10-23T03:16:48.457Z,100945.13
2023-10-23T03:19:15.641Z,100932.22
2023-10-23T03:21:43.069Z,100937.91
2023-10-23T03:24:10.475Z,100940.34
2023-10-23T03:26:37.637Z,100935.56
2023-10-23T03:29:06.001Z,100938.81
2023-10-23T03:31:34.183Z,100949.31
2023-10-23T03:34:01.315Z,100938.00
2023-10-23T03:36:28.612Z,100942.06
2023-10-23T03:38:56.556Z,100947.81
2023-10-23T03:41:23.682Z,100951.75
2023-10-23T03:43:51.662Z,100932.88
2023-10-23T03:46:18.963Z,100932.53
2023-10-23T03:48:45.926Z,100937.34
2023-10-23T03:51:13.212Z,100934.53
2023-10-23T03:53:40.261Z,100927.78
2023-10-23T03:56:07.471Z,100933.84
2023-10-23T03:58:34.472Z,100945.03
2023-10-23T04:01:01.676Z,100947.13
2023-10-23T04:03:29.915Z,100945.97
2023-10-23T04:06:00.017Z,100955.53
2023-10-23T04:08:27.129Z,100953.34
2023-10-23T04:10:54.706Z,100965.00
2023-10-23T04:13:21.782Z,100965.47
2023-10-23T04:15:57.784Z,100969.41
2023-10-23T04:18:29.437Z,100969.19
2023-10-23T04:21:09.099Z,100972.94
2023-10-23T04:23:40.807Z,100981.66
2023-10-23T04:26:08.926Z,100980.72
2023-10-23T04:28:40.434Z,100984.34
2023-10-23T04:31:07.655Z,100979.91
2023-10-23T04:33:35.022Z,100976.66
2023-10-23T04:36:02.258Z,100983.16
2023-10-23T04:38:29.895Z,100988.75
2023-10-23T04:40:57.072Z,100990.63
2023-10-23T04:43:24.580Z,100991.91
2023-10-23T04:45:54.762Z,100983.06
2023-10-23T04:48:22.201Z,100982.44
2023-10-23T04:50:49.465Z,100992.13
2023-10-23T04:53:16.681Z,100994.56
2023-10-23T04:55:44.016Z,100998.50
2023-10-23T04:58:11.167Z,100989.06
2023-10-23T05:00:39.769Z,100997.31
2023-10-23T05:03:07.641Z,101002.00
2023-10-23T05:05:37.170Z,101001.28
2023-10-23T05:08:05.360Z,100990.94
2023-10-23T05:10:32.636Z,101011.53
2023-10-23T05:13:00.277Z,101006.97
2023-10-23T05:15:29.473Z,101013.84
2023-10-23T05:17:56.677Z,101002.91
2023-10-23T05:20:23.732Z,101001.75
2023-10-23T05:22:51.225Z,101013.25
2023-10-23T05:25:19.229Z,101013.03
2023-10-23T05:27:46.689Z,101018.97
2023-10-23T05:30:13.845Z,101022.09
2023-10-23T05:32:40.899Z,101025.00
2023-10-23T05:35:08.415Z,101025.22
2023-10-23T05:37:38.593Z,101038.84
2023-10-23T05:40:07.008Z,101027.56
2023-10-23T05:42:34.258Z,101031.88
2023-10-23T05:45:04.145Z,101029.41
2023-10-23T05:47:31.722Z,101024.53
2023-10-23T05:49:59.178Z,101035.00
2023-10-23T05:52:26.366Z,101027.66
2023-10-23T05:54:53.806Z,101038.38
2023-10-23T05:57:21.120Z,101036.13
2023-10-23T05:59:48.482Z,101051.28
2023-10-23T06:02:16.660Z,101044.88
2023-10-23T06:04:44.796Z,101031.16
2023-10-23T06:07:13.479Z,101046.75
2023-10-23T06:09:41.558Z,101051.19
2023-10-23T06:12:10.473Z,101060.16
2023-10-23T06:14:38.238Z,101052.72
2023-10-23T06:17:05.529Z,101047.06
2023-10-23T06:19:32.779Z,101053.94
2023-10-23T06:22:00.867Z,101060.00
2023-10-23T06:24:28.999Z,101068.75
2023-10-23T06:26:56.321Z,101077.25
2023-10-23T06:29:25.058Z,101074.22
2023-10-23T06:31:52.375Z,101073.28
2023-10-23T06:34:19.669Z,101075.16
2023-10-23T06:36:46.887Z,101084.47
2023-10-23T06:39:14.099Z,101078.19
2023-10-23T06:41:41.292Z,101077.25
2023-10-23T06:44:10.796Z,101079.94
2023-10-23T06:46:38.704Z,101078.66
2023-10-23T06:49:06.123Z,101085.31
2023-10-23T06:51:33.524Z,101085.44
2023-10-23T06:54:00.582Z,101089.28
2023-10-23T06:56:27.588Z,101091.00
2023-10-23T06:58:54.723Z,101095.78
2023-10-23T07:01:33.769Z,101082.22
2023-10-23T07:04:05.634Z,101094.22
2023-10-23T07:06:32.871Z,101084.97
2023-10-23T07:09:00.779Z,101084.38
2023-10-23T07:11:27.981Z,101083.88
2023-10-23T07:13:54.936Z,101081.41
2023-10-23T07:16:22.130Z,101085.59
2023-10-23T07:18:49.356Z,101083.34
2023-10-23T07:21:16.770Z,101078.38
2023-10-23T07:23:44.246Z,101078.22
2023-10-23T07:26:13.612Z,101085.31
2023-10-23T07:28:41.753Z,101072.78
2023-10-23T07:31:11.660Z,101069.94
2023-10-23T07:33:39.462Z,101055.59
2023-10-23T07:36:10.190Z,101077.00
2023-10-23T07:38:41.689Z,101082.03
2023-10-23T07:41:10.197Z,101088.16
2023-10-23T07:43:37.530Z,101091.00
2023-10-23T07:46:15.580Z,101087.59
2023-10-23T07:48:44.535Z,101092.88
2023-10-23T07:51:12.035Z,101097.25
2023-10-23T07:53:39.221Z,101097.06
2023-10-23T07:56:07.161Z,101106.28
2023-10-23T07:58:44.145Z,101091.78
2023-10-23T08:01:19.862Z,101106.34
2023-10-23T08:03:48.607Z,101089.06
2023-10-23T08:06:16.885Z,101103.97
2023-10-23T08:08:46.052Z,101099.97
2023-10-23T08:11:16.889Z,101121.81
2023-10-23T08:13:44.734Z,101124.50
2023-10-23T08:16:12.035Z,101117.75
2023-10-23T08:18:41.408Z,101120.25
2023-10-23T08:21:16.215Z,101114.75
2023-10-23T08:23:47.798Z,101111.44
2023-10-23T08:26:15.612Z,101122.41
2023-10-23T08:31:29.262Z,101117.19
2023-10-23T08:34:03.318Z,101123.94
2023-10-23T08:36:31.113Z,101113.50
2023-10-23T08:38:58.277Z,101121.69
2023-10-23T08:41:27.197Z,101120.13
2023-10-23T08:43:56.774Z,101127.44
2023-10-23T08:46:33.890Z,101119.41
2023-10-23T08:49:06.149Z,101116.75
2023-10-23T08:51:33.500Z,101132.00
2023-10-23T08:54:19.042Z,101123.53
2023-10-23T08:56:54.590Z,101118.19
2023-10-23T08:59:21.942Z,101120.16
2023-10-23T09:01:49.763Z,101132.09
2023-10-23T09:04:17.389Z,101120.25
2023-10-23T09:06:45.164Z,101121.13
2023-10-23T09:09:13.126Z,101117.97
2023-10-23T09:11:47.021Z,101117.00
2023-10-23T09:14:26.634Z,101115.22
2023-10-23T09:16:56.492Z,101115.63
2023-10-23T09:19:39.428Z,101110.66
2023-10-23T09:22:14.058Z,101113.19
2023-10-23T09:24:41.807Z,101111.06
2023-10-23T09:27:09.384Z,101101.69
2023-10-23T09:29:36.632Z,101101.19
2023-10-23T09:32:06.741Z,101102.88
2023-10-23T09:34:34.564Z,101102.06
2023-10-23T09:37:02.113Z,101081.25
2023-10-23T09:39:29.359Z,101097.72
2023-10-23T09:41:56.975Z,101090.66
2023-10-23T09:44:28.292Z,101088.44
2023-10-23T09:46:58.390Z,101090.28
2023-10-23T09:49:28.244Z,101084.00
2023-10-23T09:52:01.384Z,101091.44
2023-10-23T09:54:32.911Z,101092.75
2023-10-23T09:57:07.503Z,101093.44
2023-10-23T09:59:50.199Z,101087.94
2023-10-23T10:02:20.555Z,101096.56
2023-10-23T10:04:57.705Z,101085.44
2023-10-23T10:07:46.923Z,101079.19
2023-10-23T10:10:15.830Z,101087.78
2023-10-23T10:12:45.530Z,101074.59
2023-10-23T10:15:13.400Z,101076.84
2023-10-23T10:17:44.616Z,101070.97
2023-10-23T10:20:13.271Z,101066.44
2023-10-23T10:22:43.099Z,101047.84
2023-10-23T10:25:12.528Z,101059.94
2023-10-23T10:27:40.068Z,101050.72
2023-10-23T10:30:47.135Z,101061.47
2023-10-23T10:34:19.742Z,101052.13
2023-10-23T10:36:45.894Z,101050.09
2023-10-23T10:39:08.774Z,101048.19
2023-10-23T10:41:36.927Z,101046.94
2023-10-23T10:44:13.367Z,101041.03
2023-10-23T10:46:43.908Z,101040.00
2023-10-23T10:49:16.019Z,101034.53
2023-10-23T10:51:43.464Z,101033.19
2023-10-23T10:54:12.534Z,101039.53
2023-10-23T10:56:40.073Z,101033.44
2023-10-23T10:59:07.164Z,101019.41
2023-10-23T11:01:34.950Z,101006.66
2023-10-23T11:04:03.050Z,101019.28
2023-10-23T11:06:30.930Z,101021.56
2023-10-23T11:08:59.804Z,101004.81
2023-10-23T11:11:29.099Z,101010.44
2023-10-23T11:13:56.541Z,101011.25
2023-10-23T11:16:24.470Z,101006.72
2023-10-23T11:18:52.950Z,101003.34
2023-10-23T11:21:24.584Z,101001.41
2023-10-23T11:23:59.047Z,101007.53
2023-10-23T11:26:27.998Z,100996.47
2023-10-23T11:28:55.069Z,101003.38
2023-10-23T11:31:23.157Z,100989.63
2023-10-23T11:33:56.787Z,100990.72
2023-10-23T11:36:24.096Z,100985.22
2023-10-23T11:38:51.927Z,100974.50
2023-10-23T11:41:19.145Z,100977.59
2023-10-23T11:43:46.241Z,100969.66
2023-10-23T11:46:13.825Z,100969.66
2023-10-23T11:48:41.026Z,100975.16
2023-10-23T11:51:10.166Z,100969.56
2023-10-23T11:53:37.482Z,100971.19
2023-10-23T11:56:05.536Z,100979.47
2023-10-23T11:58:32.764Z,100974.16
2023-10-23T12:00:59.955Z,100977.38
2023-10-23T12:03:27.487Z,100979.00
2023-10-23T12:05:54.624Z,100979.03
2023-10-23T12:08:21.894Z,100994.06
2023-10-23T12:10:49.085Z,100996.66
2023-10-23T12:13:16.419Z,100993.09
2023-10-23T12:15:43.921Z,100991.84
2023-10-23T12:18:11.464Z,100997.56
2023-10-23T12:20:39.180Z,101007.22
2023-10-23T12:23:06.889Z,101005.94
2023-10-23T12:25:34.530Z,100999.44
2023-10-23T12:28:01.671Z,101007.22
2023-10-23T12:30:29.515Z,101008.56
2023-10-23T12:33:17.999Z,100996.59
2023-10-23T12:35:45.043Z,101001.81
2023-10-23T12:38:13.259Z,101001.50
2023-10-23T12:40:42.226Z,100997.06
2023-10-23T12:43:11.432Z,100986.81
2023-10-23T12:45:38.813Z,100997.25
2023-10-23T12:48:06.752Z,100994.94
2023-10-23T12:50:34.667Z,100995.56
2023-10-23T12:53:02.366Z,100998.22
2023-10-23T12:55:29.827Z,100991.38
2023-10-23T12:57:57.212Z,100991.94
2023-10-23T13:00:24.391Z,100984.84
2023-10-23T13:02:51.465Z,100990.91
2023-10-23T13:05:18.673Z,100984.53
2023-10-23T13:07:45.754Z,100991.38
2023-10-23T13:10:12.904Z,100989.47
2023-10-23T13:12:40.300Z,100990.47
2023-10-23T13:15:07.821Z,100983.63
2023-10-23T13:17:35.030Z,100973.91
2023-10-23T13:20:53.985Z,100983.50
2023-10-23T13:22:54.786Z,100973.41
2023-10-23T13:25:22.675Z,100968.34
2023-10-23T13:27:49.907Z,100979.63
2023-10-23T13:30:17.921Z,100966.19
2023-10-23T13:32:45.010Z,100965.91
2023-10-23T13:35:30.562Z,100959.44
2023-10-23T13:37:58.051Z,100964.28
2023-10-23T13:40:25.293Z,100973.16
2023-10-23T13:42:52.435Z,100958.56
2023-10-23T13:45:19.782Z,100953.28
2023-10-23T13:47:47.384Z,100960.38
2023-10-23T13:50:14.726Z,100951.41
2023-10-23T13:52:42.630Z,100948.72
2023-10-23T13:55:11.541Z,100956.44
2023-10-23T13:57:39.961Z,100946.78
2023-10-23T14:00:08.104Z,100940.13
2023-10-23T14:02:38.994Z,100951.22
2023-10-23T14:05:06.945Z,100945.34
2023-10-23T14:07:35.308Z,100956.41
2023-10-23T14:10:03.611Z,100941.84
2023-10-23T14:12:30.766Z,100946.31
2023-10-23T14:14:58.022Z,100948.41
2023-10-23T14:17:25.345Z,100945.56
2023-10-23T14:19:52.718Z,100944.31
2023-10-23T14:22:20.461Z,100945.44
2023-10-23T14:24:51.500Z,100943.56
2023-10-23T14:27:18.811Z,100947.59
2023-10-23T14:29:45.851Z,100944.69
2023-10-23T14:32:13.657Z,100945.34
2023-10-23T14:34:40.924Z,100943.44
2023-10-23T14:37:08.085Z,100940.53
2023-10-23T14:39:35.268Z,100951.41
2023-10-23T14:42:02.337Z,100933.72
2023-10-23T14:44:30.777Z,100932.91
2023-10-23T14:46:58.258Z,100930.16
2023-10-23T14:49:25.513Z,100934.25
2023-10-23T14:51:53.015Z,100926.94
2023-10-23T14:54:21.103Z,100926.34
2023-10-23T14:56:50.872Z,100930.13
2023-10-23T14:59:18.618Z,100939.84
2023-10-23T15:01:45.962Z,100929.75
2023-10-23T15:04:13.651Z,100924.03
2023-10-23T15:06:41.058Z,100928.56
2023-10-23T15:09:08.537Z,100924.91
2023-10-23T15:11:35.749Z,100923.50
2023-10-23T15:14:03.302Z,100935.06
2023-10-23T15:16:33.783Z,100929.78
2023-10-23T15:19:03.601Z,100924.50
2023-10-23T15:21:30.931Z,100917.88
2023-10-23T15:23:58.419Z,100916.09
2023-10-23T15:26:25.482Z,100933.31
2023-10-23T15:28:52.609Z,100916.38
2023-10-23T15:31:20.159Z,100925.97
2023-10-23T15:33:47.553Z,100912.03
2023-10-23T15:36:15.037Z,100928.03
2023-10-23T15:38:42.859Z,100927.59
2023-10-23T15:41:12.415Z,100930.94
2023-10-23T15:43:41.471Z,100930.69
2023-10-23T15:46:17.379Z,100928.34
2023-10-23T15:48:46.126Z,100930.28
2023-10-23T15:51:13.621Z,100927.88
2023-10-23T15:53:40.964Z,100916.28
2023-10-23T15:56:08.974Z,100928.22
2023-10-23T15:58:36.489Z,100926.31
2023-10-23T16:01:05.352Z,100922.81
2023-10-23T16:03:36.769Z,100919.59
2023-10-23T16:06:10.213Z,100922.53
2023-10-23T16:08:38.763Z,100919.03
2023-10-23T16:11:08.821Z,100918.19
2023-10-23T16:13:39.819Z,100928.16
2023-10-23T16:16:16.548Z,100926.75
2023-10-23T16:18:45.828Z,100924.31
2023-10-23T16:21:15.520Z,100929.13
2023-10-23T16:23:43.421Z,100925.00
2023-10-23T16:26:11.533Z,100927.69
2023-10-23T16:28:40.095Z,100920.34
2023-10-23T16:31:09.752Z,100918.41
2023-10-23T16:33:37.474Z,100922.16
2023-10-23T16:36:05.098Z,100918.31
2023-10-23T16:38:32.148Z,100918.53
2023-10-23T16:40:59.364Z,100915.22
2023-10-23T16:43:26.539Z,100920.56
2023-10-23T16:45:53.765Z,100917.25
2023-10-23T16:48:20.894Z,100920.94
2023-10-23T16:50:48.043Z,100914.66
2023-10-23T16:53:15.226Z,100921.63
2023-10-23T16:55:42.774Z,100917.28
2023-10-23T16:58:10.088Z,100922.88
2023-10-23T17:00:39.191Z,100904.22
2023-10-23T17:03:06.493Z,100906.06
2023-10-23T17:05:36.549Z,100903.81
2023-10-23T17:08:04.188Z,100913.47
2023-10-23T17:10:31.795Z,100907.75
2023-10-23T17:12:59.072Z,100906.84
2023-10-23T17:15:26.176Z,100914.53
2023-10-23T17:17:53.641Z,100919.63
2023-10-23T17:20:21.293Z,100910.13
2023-10-23T17:22:49.150Z,100908.44
2023-10-23T17:25:16.672Z,100903.78
2023-10-23T17:27:44.366Z,100909.91
2023-10-23T17:30:13.196Z,100896.91
2023-10-23T17:32:41.622Z,100890.34
2023-10-23T17:35:09.401Z,100902.75
2023-10-23T17:37:36.758Z,100900.00
2023-10-23T17:40:05.360Z,100886.69
2023-10-23T17:42:32.459Z,100886.63
2023-10-23T17:44:59.735Z,100884.94
2023-10-23T17:47:29.117Z,100888.91
2023-10-23T17:49:57.807Z,100895.84
2023-10-23T17:52:28.754Z,100896.34
2023-10-23T17:54:57.897Z,100893.81
2023-10-23T17:57:27.506Z,100898.31
2023-10-23T17:59:54.790Z,100886.94
2023-10-23T18:02:22.321Z,100893.38
2023-10-23T18:04:49.770Z,100892.94
2023-10-23T18:07:17.792Z,100895.06
2023-10-23T18:09:45.009Z,100895.31
2023-10-23T18:12:26.663Z,100893.63
2023-10-23T18:14:54.707Z,100892.00
2023-10-23T18:17:23.789Z,100896.22
2023-10-23T18:19:51.132Z,100902.91
2023-10-23T18:22:20.541Z,100890.22
2023-10-23T18:24:50.453Z,100897.47
2023-10-23T18:27:18.234Z,100893.41
2023-10-23T18:29:46.034Z,100895.75
2023-10-23T18:32:15.807Z,100897.06
2023-10-23T18:34:43.468Z,100895.59
2023-10-23T18:37:11.794Z,100877.81
2023-10-23T18:39:39.427Z,100871.31
2023-10-23T18:42:09.813Z,100886.66
2023-10-23T18:44:37.202Z,100890.66
2023-10-23T18:47:06.531Z,100877.28
2023-10-23T18:49:34.573Z,100871.91
2023-10-23T18:52:01.729Z,100877.28
2023-10-23T18:54:29.920Z,100864.44
2023-10-23T18:57:01.153Z,100879.00
2023-10-23T18:59:28.485Z,100874.34
2023-10-23T19:01:56.079Z,100877.03
2023-10-23T19:04:23.461Z,100882.31
2023-10-23T19:06:50.568Z,100881.50
2023-10-23T19:09:17.978Z,100876.88
2023-10-23T19:11:45.261Z,100877.34
2023-10-23T19:14:12.680Z,100889.47
2023-10-23T19:16:40.029Z,100883.19
2023-10-23T19:19:08.222Z,100883.44
2023-10-23T19:21:36.763Z,100879.63
2023-10-23T19:24:05.144Z,100886.84
2023-10-23T19:26:32.551Z,100879.78
2023-10-23T19:28:59.782Z,100876.75
2023-10-23T19:31:27.815Z,100881.56
2023-10-23T19:33:55.552Z,100884.94
2023-10-23T19:36:25.393Z,100895.44
2023-10-23T19:38:53.424Z,100891.84
2023-10-23T19:41:49.516Z,100885.09
2023-10-23T19:44:18.175Z,100881.25
2023-10-23T19:46:46.147Z,100881.47
2023-10-23T19:49:13.828Z,100885.94
2023-10-23T19:51:44.561Z,100870.56
2023-10-23T19:54:37.785Z,100883.97
2023-10-23T19:57:00.525Z,100883.38
2023-10-23T19:59:28.299Z,100872.56
2023-10-23T20:01:58.992Z,100877.91
2023-10-23T20:04:27.717Z,100872.78
2023-10-23T20:06:55.381Z,100874.78
2023-10-23T20:09:22.884Z,100888.06
2023-10-23T20:11:50.538Z,100877.25
2023-10-23T20:14:17.706Z,100875.38
2023-10-23T20:16:45.458Z,100875.59
2023-10-23T20:19:13.865Z,100875.03
2023-10-23T20:21:41.101Z,100878.44
2023-10-23T20:24:09.040Z,100878.44
2023-10-23T20:26:36.257Z,100883.78
2023-10-23T20:29:03.571Z,100879.72
2023-10-23T20:31:30.780Z,100878.56
2023-10-23T20:33:58.039Z,100862.97
2023-10-23T20:36:25.594Z,100870.44
2023-10-23T20:38:52.794Z,100870.19
2023-10-23T20:41:20.436Z,100865.06
2023-10-23T20:43:49.770Z,100860.19
2023-10-23T20:46:18.674Z,100849.38
2023-10-23T20:48:46.137Z,100856.13
2023-10-23T20:51:13.464Z,100851.25
2023-10-23T20:53:40.894Z,100826.94
2023-10-23T20:56:08.665Z,100852.88
2023-10-23T20:58:36.016Z,100831.09
2023-10-23T21:01:10.208Z,100825.75
2023-10-23T21:03:37.835Z,100823.31
2023-10-23T21:06:06.778Z,100820.06
2023-10-23T21:08:38.921Z,100827.84
2023-10-23T21:11:08.462Z,100825.19
2023-10-23T21:13:37.234Z,100808.88
2023-10-23T21:16:08.125Z,100805.28
2023-10-23T21:18:35.779Z,100797.00
2023-10-23T21:21:04.031Z,100801.88
2023-10-23T21:23:31.768Z,100794.09
2023-10-23T21:26:05.920Z,100784.44
2023-10-23T21:28:34.208Z,100776.63
2023-10-23T21:31:02.231Z,100770.22
2023-10-23T21:33:30.153Z,100768.47
2023-10-23T21:35:57.833Z,100767.06
2023-10-23T21:38:25.687Z,100765.06
2023-10-23T21:40:53.352Z,100757.75
2023-10-23T21:43:21.442Z,100768.31
2023-10-23T21:45:55.878Z,100765.63
2023-10-23T21:48:29.387Z,100757.38
2023-10-23T21:50:56.944Z,100750.06
2023-10-23T21:53:24.833Z,100755.84
2023-10-23T21:55:52.489Z,100766.63
2023-10-23T21:58:19.939Z,100762.09
2023-10-23T22:00:47.699Z,100762.44
2023-10-23T22:03:15.363Z,100759.25
2023-10-23T22:05:43.588Z,100759.03
2023-10-23T22:08:11.466Z,100755.06
2023-10-23T22:10:39.936Z,100757.25
2023-10-23T22:13:07.531Z,100745.06
2023-10-23T22:15:34.649Z,100761.88
2023-10-23T22:18:02.436Z,100762.69
2023-10-23T22:20:29.734Z,100762.69
2023-10-23T22:22:56.828Z,100766.19
2023-10-23T22:25:24.166Z,100762.22
2023-10-23T22:27:51.279Z,100762.78
2023-10-23T22:30:18.556Z,100755.09
2023-10-23T22:32:51.789Z,100754.75
2023-10-23T22:35:24.855Z,100760.22
2023-10-23T22:38:08.628Z,100753.72
2023-10-23T22:40:37.423Z,100752.50
2023-10-23T22:43:05.087Z,100755.75
2023-10-23T22:45:41.248Z,100751.69
2023-10-23T22:48:14.609Z,100740.25
2023-10-23T22:50:42.219Z,100735.44
2023-10-23T22:53:09.830Z,100738.00
2023-10-23T22:55:37.454Z,100735.06
2023-10-23T22:58:06.924Z,100728.91
2023-10-23T23:00:35.093Z,100738.09
2023-10-23T23:03:02.758Z,100740.53
2023-10-23T23:05:30.388Z,100749.13
2023-10-23T23:07:58.835Z,100733.03
2023-10-23T23:10:28.609Z,100726.88
2023-10-23T23:12:57.414Z,100734.66
2023-10-23T23:15:24.822Z,100733.84
2023-10-23T23:17:53.103Z,100734.19
2023-10-23T23:20:23.440Z,100728.81
2023-10-23T23:22:51.168Z,100727.75
2023-10-23T23:25:18.789Z,100723.28
2023-10-23T23:27:46.340Z,100727.84
2023-10-23T23:30:13.815Z,100716.53
2023-10-23T23:32:40.892Z,100730.03
2023-10-23T23:35:08.880Z,100721.97
2023-10-23T23:37:37.030Z,100723.94
2023-10-23T23:40:05.779Z,100712.16
2023-10-23T23:42:33.031Z,100717.50
2023-10-23T23:45:00.257Z,100714.34
2023-10-23T23:47:27.571Z,100717.59
2023-10-23T23:49:54.775Z,100711.41
2023-10-23T23:52:23.226Z,100713.59
2023-10-23T23:54:50.987Z,100704.75
2023-10-23T23:57:18.245Z,100693.69
2023-10-23T23:59:45.415Z,100697.44
